sensor_id;sensor_type;location;lat;lon;timestamp;temperature;humidity
70726;DHT22;58304;53.104;6.022;2022-12-07T00:01:06;2.70;99.90
70726;DHT22;58304;53.104;6.022;2022-12-07T00:03:32;2.80;99.90
70726;DHT22;58304;53.104;6.022;2022-12-07T00:05:58;2.80;99.90
70726;DHT22;58304;53.104;6.022;2022-12-07T00:08:24;2.80;99.90
70726;DHT22;58304;53.104;6.022;2022-12-07T00:10:50;2.70;99.90
70726;DHT22;58304;53.104;6.022;2022-12-07T00:13:15;2.70;99.90
70726;DHT22;58304;53.104;6.022;2022-12-07T00:15:41;2.80;99.90
70726;DHT22;58304;53.104;6.022;2022-12-07T00:18:06;2.80;99.90
70726;DHT22;58304;53.104;6.022;2022-12-07T00:20:32;2.80;99.90
70726;DHT22;58304;53.104;6.022;2022-12-07T00:22:58;2.80;99.90
70726;DHT22;58304;53.104;6.022;2022-12-07T00:25:25;2.80;99.90
70726;DHT22;58304;53.104;6.022;2022-12-07T00:27:52;2.80;99.90
70726;DHT22;58304;53.104;6.022;2022-12-07T00:30:18;2.80;99.90
70726;DHT22;58304;53.104;6.022;2022-12-07T00:32:44;2.70;99.90
70726;DHT22;58304;53.104;6.022;2022-12-07T00:35:09;2.70;99.90
70726;DHT22;58304;53.104;6.022;2022-12-07T00:37:35;2.70;99.90
70726;DHT22;58304;53.104;6.022;2022-12-07T00:40:01;2.70;99.90
70726;DHT22;58304;53.104;6.022;2022-12-07T00:42:26;2.70;99.90
70726;DHT22;58304;53.104;6.022;2022-12-07T00:44:52;2.70;99.90
70726;DHT22;58304;53.104;6.022;2022-12-07T00:47:17;2.70;99.90
70726;DHT22;58304;53.104;6.022;2022-12-07T00:49:43;2.70;99.90
70726;DHT22;58304;53.104;6.022;2022-12-07T00:52:09;2.70;99.90
70726;DHT22;58304;53.104;6.022;2022-12-07T00:54:36;2.90;99.90
70726;DHT22;58304;53.104;6.022;2022-12-07T00:57:02;2.90;99.90
70726;DHT22;58304;53.104;6.022;2022-12-07T00:59:28;2.90;99.90
70726;DHT22;58304;53.104;6.022;2022-12-07T01:01:53;3.00;99.90
70726;DHT22;58304;53.104;6.022;2022-12-07T01:04:19;3.10;99.90
70726;DHT22;58304;53.104;6.022;2022-12-07T01:06:45;3.10;99.90
70726;DHT22;58304;53.104;6.022;2022-12-07T01:09:10;3.10;99.90
70726;DHT22;58304;53.104;6.022;2022-12-07T01:11:36;3.10;99.90
70726;DHT22;58304;53.104;6.022;2022-12-07T01:14:02;3.20;99.90
70726;DHT22;58304;53.104;6.022;2022-12-07T01:16:28;3.20;99.90
70726;DHT22;58304;53.104;6.022;2022-12-07T01:18:56;3.20;99.90
70726;DHT22;58304;53.104;6.022;2022-12-07T01:21:25;3.20;99.90
70726;DHT22;58304;53.104;6.022;2022-12-07T01:23:51;3.10;99.90
70726;DHT22;58304;53.104;6.022;2022-12-07T01:26:20;3.10;99.90
70726;DHT22;58304;53.104;6.022;2022-12-07T01:28:46;3.00;99.90
70726;DHT22;58304;53.104;6.022;2022-12-07T01:31:13;3.00;99.90
70726;DHT22;58304;53.104;6.022;2022-12-07T01:33:44;2.90;99.90
70726;DHT22;58304;53.104;6.022;2022-12-07T01:38:48;2.90;99.90
70726;DHT22;58304;53.104;6.022;2022-12-07T01:41:16;3.00;99.90
70726;DHT22;58304;53.104;6.022;2022-12-07T01:44:08;3.00;99.90
70726;DHT22;58304;53.104;6.022;2022-12-07T01:46:34;3.00;99.90
70726;DHT22;58304;53.104;6.022;2022-12-07T01:49:06;3.00;99.90
70726;DHT22;58304;53.104;6.022;2022-12-07T01:51:34;3.10;99.90
70726;DHT22;58304;53.104;6.022;2022-12-07T01:54:01;3.10;99.90
70726;DHT22;58304;53.104;6.022;2022-12-07T01:56:28;3.20;99.90
70726;DHT22;58304;53.104;6.022;2022-12-07T01:58:55;3.20;99.90
70726;DHT22;58304;53.104;6.022;2022-12-07T02:01:22;3.20;99.90
70726;DHT22;58304;53.104;6.022;2022-12-07T02:03:48;3.30;99.90
70726;DHT22;58304;53.104;6.022;2022-12-07T02:06:16;3.30;99.90
70726;DHT22;58304;53.104;6.022;2022-12-07T02:08:42;3.30;99.90
70726;DHT22;58304;53.104;6.022;2022-12-07T02:11:09;3.30;99.90
70726;DHT22;58304;53.104;6.022;2022-12-07T02:13:36;3.30;99.90
70726;DHT22;58304;53.104;6.022;2022-12-07T02:34:55;3.00;99.90
70726;DHT22;58304;53.104;6.022;2022-12-07T02:40:14;2.90;99.90
70726;DHT22;58304;53.104;6.022;2022-12-07T02:42:45;2.90;99.90
70726;DHT22;58304;53.104;6.022;2022-12-07T02:45:15;2.80;99.90
70726;DHT22;58304;53.104;6.022;2022-12-07T02:47:43;2.80;99.90
70726;DHT22;58304;53.104;6.022;2022-12-07T02:50:10;2.80;99.90
70726;DHT22;58304;53.104;6.022;2022-12-07T02:52:36;2.90;99.90
70726;DHT22;58304;53.104;6.022;2022-12-07T02:55:02;2.90;99.90
70726;DHT22;58304;53.104;6.022;2022-12-07T03:00:14;2.80;99.90
70726;DHT22;58304;53.104;6.022;2022-12-07T03:11:09;2.60;99.90
70726;DHT22;58304;53.104;6.022;2022-12-07T03:16:38;2.60;99.90
70726;DHT22;58304;53.104;6.022;2022-12-07T03:19:26;2.60;99.90
70726;DHT22;58304;53.104;6.022;2022-12-07T03:22:05;2.60;99.90
70726;DHT22;58304;53.104;6.022;2022-12-07T03:24:37;2.50;99.90
70726;DHT22;58304;53.104;6.022;2022-12-07T03:27:11;2.60;99.90
70726;DHT22;58304;53.104;6.022;2022-12-07T03:29:43;2.60;99.90
70726;DHT22;58304;53.104;6.022;2022-12-07T03:32:33;2.60;99.90
70726;DHT22;58304;53.104;6.022;2022-12-07T03:37:59;2.50;99.90
70726;DHT22;58304;53.104;6.022;2022-12-07T03:40:30;2.50;99.90
70726;DHT22;58304;53.104;6.022;2022-12-07T03:42:59;2.40;99.90
70726;DHT22;58304;53.104;6.022;2022-12-07T03:45:37;2.40;99.90
70726;DHT22;58304;53.104;6.022;2022-12-07T03:48:24;2.40;99.90
70726;DHT22;58304;53.104;6.022;2022-12-07T03:51:14;2.40;99.90
70726;DHT22;58304;53.104;6.022;2022-12-07T03:53:48;2.40;99.90
70726;DHT22;58304;53.104;6.022;2022-12-07T03:56:16;2.30;99.90
70726;DHT22;58304;53.104;6.022;2022-12-07T03:58:42;2.40;99.90
70726;DHT22;58304;53.104;6.022;2022-12-07T04:01:08;2.50;99.90
70726;DHT22;58304;53.104;6.022;2022-12-07T04:03:34;2.50;99.90
70726;DHT22;58304;53.104;6.022;2022-12-07T04:06:00;2.60;99.90
70726;DHT22;58304;53.104;6.022;2022-12-07T04:08:25;2.70;99.90
70726;DHT22;58304;53.104;6.022;2022-12-07T04:10:51;2.70;99.90
70726;DHT22;58304;53.104;6.022;2022-12-07T04:13:17;2.60;99.90
70726;DHT22;58304;53.104;6.022;2022-12-07T04:15:42;2.60;99.90
70726;DHT22;58304;53.104;6.022;2022-12-07T04:18:08;2.60;99.90
70726;DHT22;58304;53.104;6.022;2022-12-07T04:20:34;2.60;99.90
70726;DHT22;58304;53.104;6.022;2022-12-07T04:22:59;2.60;99.90
70726;DHT22;58304;53.104;6.022;2022-12-07T04:25:25;2.60;99.90
70726;DHT22;58304;53.104;6.022;2022-12-07T04:27:50;2.60;99.90
70726;DHT22;58304;53.104;6.022;2022-12-07T04:30:18;2.70;99.90
70726;DHT22;58304;53.104;6.022;2022-12-07T04:32:44;2.50;99.90
70726;DHT22;58304;53.104;6.022;2022-12-07T04:35:09;2.50;99.90
70726;DHT22;58304;53.104;6.022;2022-12-07T04:37:35;2.40;99.90
70726;DHT22;58304;53.104;6.022;2022-12-07T04:40:01;2.40;99.90
70726;DHT22;58304;53.104;6.022;2022-12-07T04:42:27;2.50;99.90
70726;DHT22;58304;53.104;6.022;2022-12-07T04:44:52;2.40;99.90
70726;DHT22;58304;53.104;6.022;2022-12-07T04:47:18;2.30;99.90
70726;DHT22;58304;53.104;6.022;2022-12-07T04:49:43;2.30;99.90
70726;DHT22;58304;53.104;6.022;2022-12-07T04:52:09;2.30;99.90
70726;DHT22;58304;53.104;6.022;2022-12-07T04:54:35;2.30;99.90
70726;DHT22;58304;53.104;6.022;2022-12-07T04:57:00;2.30;99.90
70726;DHT22;58304;53.104;6.022;2022-12-07T04:59:28;2.30;99.90
70726;DHT22;58304;53.104;6.022;2022-12-07T05:01:54;2.30;99.90
70726;DHT22;58304;53.104;6.022;2022-12-07T05:04:22;2.30;99.90
70726;DHT22;58304;53.104;6.022;2022-12-07T05:06:47;2.30;99.90
70726;DHT22;58304;53.104;6.022;2022-12-07T05:09:13;2.30;99.90
70726;DHT22;58304;53.104;6.022;2022-12-07T05:11:39;2.40;99.90
70726;DHT22;58304;53.104;6.022;2022-12-07T05:14:13;2.40;99.90
70726;DHT22;58304;53.104;6.022;2022-12-07T05:16:39;2.40;99.90
70726;DHT22;58304;53.104;6.022;2022-12-07T05:19:05;2.40;99.90
70726;DHT22;58304;53.104;6.022;2022-12-07T05:21:31;2.40;99.90
70726;DHT22;58304;53.104;6.022;2022-12-07T05:23:57;2.50;99.90
70726;DHT22;58304;53.104;6.022;2022-12-07T05:26:23;2.50;99.90
70726;DHT22;58304;53.104;6.022;2022-12-07T05:28:53;2.50;99.90
70726;DHT22;58304;53.104;6.022;2022-12-07T05:31:20;2.60;99.90
70726;DHT22;58304;53.104;6.022;2022-12-07T05:33:45;2.60;99.90
70726;DHT22;58304;53.104;6.022;2022-12-07T05:36:11;2.60;99.90
70726;DHT22;58304;53.104;6.022;2022-12-07T05:38:36;2.70;99.90
70726;DHT22;58304;53.104;6.022;2022-12-07T05:41:04;2.70;99.90
70726;DHT22;58304;53.104;6.022;2022-12-07T05:43:30;2.80;99.90
70726;DHT22;58304;53.104;6.022;2022-12-07T05:45:56;2.80;99.90
70726;DHT22;58304;53.104;6.022;2022-12-07T05:48:21;2.80;99.90
70726;DHT22;58304;53.104;6.022;2022-12-07T05:50:51;2.80;99.90
70726;DHT22;58304;53.104;6.022;2022-12-07T05:53:17;2.80;99.90
70726;DHT22;58304;53.104;6.022;2022-12-07T05:55:43;2.80;99.90
70726;DHT22;58304;53.104;6.022;2022-12-07T05:58:09;2.80;99.90
70726;DHT22;58304;53.104;6.022;2022-12-07T06:00:57;2.80;99.90
70726;DHT22;58304;53.104;6.022;2022-12-07T06:03:23;2.80;99.90
70726;DHT22;58304;53.104;6.022;2022-12-07T06:05:48;2.70;99.90
70726;DHT22;58304;53.104;6.022;2022-12-07T06:08:14;2.70;99.90
70726;DHT22;58304;53.104;6.022;2022-12-07T06:10:40;2.70;99.90
70726;DHT22;58304;53.104;6.022;2022-12-07T06:13:07;2.60;99.90
70726;DHT22;58304;53.104;6.022;2022-12-07T06:15:35;2.70;99.90
70726;DHT22;58304;53.104;6.022;2022-12-07T06:18:01;2.60;99.90
70726;DHT22;58304;53.104;6.022;2022-12-07T06:20:27;2.60;99.90
70726;DHT22;58304;53.104;6.022;2022-12-07T06:22:52;2.50;99.90
70726;DHT22;58304;53.104;6.022;2022-12-07T06:25:18;2.40;99.90
70726;DHT22;58304;53.104;6.022;2022-12-07T06:27:44;2.40;99.90
70726;DHT22;58304;53.104;6.022;2022-12-07T06:30:10;2.30;99.90
70726;DHT22;58304;53.104;6.022;2022-12-07T06:32:36;2.30;99.90
70726;DHT22;58304;53.104;6.022;2022-12-07T06:35:03;2.20;99.90
70726;DHT22;58304;53.104;6.022;2022-12-07T06:37:28;2.20;99.90
70726;DHT22;58304;53.104;6.022;2022-12-07T06:39:54;2.20;99.90
70726;DHT22;58304;53.104;6.022;2022-12-07T06:42:20;2.20;99.90
70726;DHT22;58304;53.104;6.022;2022-12-07T06:44:45;2.10;99.90
70726;DHT22;58304;53.104;6.022;2022-12-07T06:47:11;2.10;99.90
70726;DHT22;58304;53.104;6.022;2022-12-07T06:49:36;2.10;99.90
70726;DHT22;58304;53.104;6.022;2022-12-07T06:52:02;2.10;99.90
70726;DHT22;58304;53.104;6.022;2022-12-07T06:54:30;2.10;99.90
70726;DHT22;58304;53.104;6.022;2022-12-07T06:56:55;2.20;99.90
70726;DHT22;58304;53.104;6.022;2022-12-07T06:59:21;2.20;99.90
70726;DHT22;58304;53.104;6.022;2022-12-07T07:01:47;2.30;99.90
70726;DHT22;58304;53.104;6.022;2022-12-07T07:04:12;2.30;99.90
70726;DHT22;58304;53.104;6.022;2022-12-07T07:06:38;2.40;99.90
70726;DHT22;58304;53.104;6.022;2022-12-07T07:09:04;2.60;99.90
70726;DHT22;58304;53.104;6.022;2022-12-07T07:11:29;2.70;99.90
70726;DHT22;58304;53.104;6.022;2022-12-07T07:13:55;2.70;99.90
70726;DHT22;58304;53.104;6.022;2022-12-07T07:16:23;2.70;99.90
70726;DHT22;58304;53.104;6.022;2022-12-07T07:18:49;2.80;99.90
70726;DHT22;58304;53.104;6.022;2022-12-07T07:21:15;2.80;99.90
70726;DHT22;58304;53.104;6.022;2022-12-07T07:23:40;2.80;99.90
70726;DHT22;58304;53.104;6.022;2022-12-07T07:26:06;2.70;99.90
70726;DHT22;58304;53.104;6.022;2022-12-07T07:28:32;2.70;99.90
70726;DHT22;58304;53.104;6.022;2022-12-07T07:30:57;2.60;99.90
70726;DHT22;58304;53.104;6.022;2022-12-07T07:33:23;2.50;99.90
70726;DHT22;58304;53.104;6.022;2022-12-07T07:35:48;2.50;99.90
70726;DHT22;58304;53.104;6.022;2022-12-07T07:38:14;2.40;99.90
70726;DHT22;58304;53.104;6.022;2022-12-07T07:40:39;2.30;99.90
70726;DHT22;58304;53.104;6.022;2022-12-07T07:43:05;2.30;99.90
70726;DHT22;58304;53.104;6.022;2022-12-07T07:45:31;2.30;99.90
70726;DHT22;58304;53.104;6.022;2022-12-07T07:47:56;2.30;99.90
70726;DHT22;58304;53.104;6.022;2022-12-07T07:50:22;2.20;99.90
70726;DHT22;58304;53.104;6.022;2022-12-07T07:52:48;2.20;99.90
70726;DHT22;58304;53.104;6.022;2022-12-07T07:55:13;2.20;99.90
70726;DHT22;58304;53.104;6.022;2022-12-07T07:57:41;2.10;99.90
70726;DHT22;58304;53.104;6.022;2022-12-07T08:00:12;2.10;99.90
70726;DHT22;58304;53.104;6.022;2022-12-07T08:02:39;2.10;99.90
70726;DHT22;58304;53.104;6.022;2022-12-07T08:05:05;2.10;99.90
70726;DHT22;58304;53.104;6.022;2022-12-07T08:07:31;2.20;99.90
70726;DHT22;58304;53.104;6.022;2022-12-07T08:09:57;2.20;99.90
70726;DHT22;58304;53.104;6.022;2022-12-07T08:12:22;2.20;99.90
70726;DHT22;58304;53.104;6.022;2022-12-07T08:14:48;2.20;99.90
70726;DHT22;58304;53.104;6.022;2022-12-07T08:17:14;2.20;99.90
70726;DHT22;58304;53.104;6.022;2022-12-07T08:19:39;2.10;99.90
70726;DHT22;58304;53.104;6.022;2022-12-07T08:22:05;2.20;99.90
70726;DHT22;58304;53.104;6.022;2022-12-07T08:24:33;2.10;99.90
70726;DHT22;58304;53.104;6.022;2022-12-07T08:26:59;2.10;99.90
70726;DHT22;58304;53.104;6.022;2022-12-07T08:29:25;2.10;99.90
70726;DHT22;58304;53.104;6.022;2022-12-07T08:31:50;2.20;99.90
70726;DHT22;58304;53.104;6.022;2022-12-07T08:34:16;2.20;99.90
70726;DHT22;58304;53.104;6.022;2022-12-07T08:36:42;2.40;99.90
70726;DHT22;58304;53.104;6.022;2022-12-07T08:39:07;2.50;99.90
70726;DHT22;58304;53.104;6.022;2022-12-07T08:41:33;2.80;99.90
70726;DHT22;58304;53.104;6.022;2022-12-07T08:43:58;3.20;99.90
70726;DHT22;58304;53.104;6.022;2022-12-07T08:46:48;3.70;99.90
70726;DHT22;58304;53.104;6.022;2022-12-07T08:49:20;3.90;99.90
70726;DHT22;58304;53.104;6.022;2022-12-07T08:51:47;4.10;99.90
70726;DHT22;58304;53.104;6.022;2022-12-07T08:54:16;4.30;99.90
70726;DHT22;58304;53.104;6.022;2022-12-07T08:56:42;4.40;99.90
70726;DHT22;58304;53.104;6.022;2022-12-07T08:59:08;4.40;99.90
70726;DHT22;58304;53.104;6.022;2022-12-07T09:01:34;4.30;99.90
70726;DHT22;58304;53.104;6.022;2022-12-07T09:03:59;4.20;99.90
70726;DHT22;58304;53.104;6.022;2022-12-07T09:06:25;4.20;99.90
70726;DHT22;58304;53.104;6.022;2022-12-07T09:08:55;4.20;99.90
70726;DHT22;58304;53.104;6.022;2022-12-07T09:11:22;4.10;99.90
70726;DHT22;58304;53.104;6.022;2022-12-07T09:13:47;4.00;99.90
70726;DHT22;58304;53.104;6.022;2022-12-07T09:16:13;4.00;99.90
70726;DHT22;58304;53.104;6.022;2022-12-07T09:18:39;3.90;99.90
70726;DHT22;58304;53.104;6.022;2022-12-07T09:21:05;3.90;99.90
70726;DHT22;58304;53.104;6.022;2022-12-07T09:23:30;3.80;99.90
70726;DHT22;58304;53.104;6.022;2022-12-07T09:25:59;3.70;99.90
70726;DHT22;58304;53.104;6.022;2022-12-07T09:28:26;3.90;99.90
70726;DHT22;58304;53.104;6.022;2022-12-07T09:30:51;4.40;99.90
70726;DHT22;58304;53.104;6.022;2022-12-07T09:33:17;5.00;99.90
70726;DHT22;58304;53.104;6.022;2022-12-07T09:35:49;5.60;99.90
70726;DHT22;58304;53.104;6.022;2022-12-07T09:38:15;6.30;99.90
70726;DHT22;58304;53.104;6.022;2022-12-07T09:40:41;7.30;99.90
70726;DHT22;58304;53.104;6.022;2022-12-07T09:43:17;8.10;99.90
70726;DHT22;58304;53.104;6.022;2022-12-07T09:45:44;8.00;99.90
70726;DHT22;58304;53.104;6.022;2022-12-07T09:48:29;7.80;99.90
70726;DHT22;58304;53.104;6.022;2022-12-07T09:50:57;7.50;99.90
70726;DHT22;58304;53.104;6.022;2022-12-07T09:53:30;7.20;99.90
70726;DHT22;58304;53.104;6.022;2022-12-07T09:55:59;6.90;99.90
70726;DHT22;58304;53.104;6.022;2022-12-07T09:58:27;6.60;99.90
70726;DHT22;58304;53.104;6.022;2022-12-07T10:01:15;6.50;99.90
70726;DHT22;58304;53.104;6.022;2022-12-07T10:03:51;6.20;99.90
70726;DHT22;58304;53.104;6.022;2022-12-07T10:06:17;6.10;99.90
70726;DHT22;58304;53.104;6.022;2022-12-07T10:08:43;6.60;99.90
70726;DHT22;58304;53.104;6.022;2022-12-07T10:11:10;7.20;99.90
70726;DHT22;58304;53.104;6.022;2022-12-07T10:13:41;7.90;99.90
70726;DHT22;58304;53.104;6.022;2022-12-07T10:16:31;8.70;99.90
70726;DHT22;58304;53.104;6.022;2022-12-07T10:19:30;9.50;99.90
70726;DHT22;58304;53.104;6.022;2022-12-07T10:24:25;11.00;99.90
70726;DHT22;58304;53.104;6.022;2022-12-07T10:26:51;11.20;99.90
70726;DHT22;58304;53.104;6.022;2022-12-07T10:29:35;11.50;99.90
70726;DHT22;58304;53.104;6.022;2022-12-07T10:32:05;11.30;99.90
70726;DHT22;58304;53.104;6.022;2022-12-07T10:34:37;11.30;99.90
70726;DHT22;58304;53.104;6.022;2022-12-07T10:39:55;11.40;99.90
70726;DHT22;58304;53.104;6.022;2022-12-07T10:42:23;11.20;99.90
70726;DHT22;58304;53.104;6.022;2022-12-07T10:44:50;10.80;99.90
70726;DHT22;58304;53.104;6.022;2022-12-07T10:47:51;10.40;99.90
70726;DHT22;58304;53.104;6.022;2022-12-07T10:50:41;10.00;99.90
70726;DHT22;58304;53.104;6.022;2022-12-07T10:53:24;9.70;99.90
70726;DHT22;58304;53.104;6.022;2022-12-07T10:56:12;9.70;99.90
70726;DHT22;58304;53.104;6.022;2022-12-07T10:59:19;9.50;99.90
70726;DHT22;58304;53.104;6.022;2022-12-07T11:14:37;7.40;99.90
70726;DHT22;58304;53.104;6.022;2022-12-07T11:17:09;7.20;99.90
70726;DHT22;58304;53.104;6.022;2022-12-07T11:19:52;7.10;99.90
70726;DHT22;58304;53.104;6.022;2022-12-07T11:28:26;7.00;99.90
70726;DHT22;58304;53.104;6.022;2022-12-07T11:31:07;7.00;99.90
70726;DHT22;58304;53.104;6.022;2022-12-07T11:36:37;7.50;99.90
70726;DHT22;58304;53.104;6.022;2022-12-07T11:39:20;8.00;99.90
70726;DHT22;58304;53.104;6.022;2022-12-07T11:41:51;8.40;99.90
70726;DHT22;58304;53.104;6.022;2022-12-07T11:44:34;8.80;99.90
70726;DHT22;58304;53.104;6.022;2022-12-07T11:47:13;9.00;99.90
70726;DHT22;58304;53.104;6.022;2022-12-07T11:49:55;9.00;99.90
70726;DHT22;58304;53.104;6.022;2022-12-07T11:54:52;8.40;99.90
70726;DHT22;58304;53.104;6.022;2022-12-07T11:57:33;8.00;99.90
70726;DHT22;58304;53.104;6.022;2022-12-07T12:00:05;7.60;99.90
70726;DHT22;58304;53.104;6.022;2022-12-07T12:02:59;7.40;99.90
70726;DHT22;58304;53.104;6.022;2022-12-07T12:05:25;7.20;99.90
70726;DHT22;58304;53.104;6.022;2022-12-07T12:08:00;6.80;99.90
70726;DHT22;58304;53.104;6.022;2022-12-07T12:10:56;6.60;99.90
70726;DHT22;58304;53.104;6.022;2022-12-07T12:22:12;6.00;99.90
70726;DHT22;58304;53.104;6.022;2022-12-07T12:24:40;5.90;99.90
70726;DHT22;58304;53.104;6.022;2022-12-07T12:27:09;5.70;99.90
70726;DHT22;58304;53.104;6.022;2022-12-07T12:29:38;5.60;99.90
70726;DHT22;58304;53.104;6.022;2022-12-07T12:32:16;5.60;99.90
70726;DHT22;58304;53.104;6.022;2022-12-07T12:37:43;5.80;99.90
70726;DHT22;58304;53.104;6.022;2022-12-07T12:42:50;5.90;99.90
70726;DHT22;58304;53.104;6.022;2022-12-07T12:45:31;6.00;99.90
70726;DHT22;58304;53.104;6.022;2022-12-07T12:48:04;6.10;99.90
70726;DHT22;58304;53.104;6.022;2022-12-07T12:50:37;6.10;99.90
70726;DHT22;58304;53.104;6.022;2022-12-07T12:58:30;6.30;99.90
70726;DHT22;58304;53.104;6.022;2022-12-07T13:04:01;6.20;99.90
70726;DHT22;58304;53.104;6.022;2022-12-07T13:08:54;6.10;99.90
70726;DHT22;58304;53.104;6.022;2022-12-07T13:11:33;6.10;99.90
70726;DHT22;58304;53.104;6.022;2022-12-07T13:17:07;6.20;99.90
70726;DHT22;58304;53.104;6.022;2022-12-07T13:25:05;6.10;99.90
70726;DHT22;58304;53.104;6.022;2022-12-07T13:27:37;6.00;99.90
70726;DHT22;58304;53.104;6.022;2022-12-07T13:30:16;6.00;99.90
70726;DHT22;58304;53.104;6.022;2022-12-07T13:32:43;5.90;99.90
70726;DHT22;58304;53.104;6.022;2022-12-07T13:35:35;5.90;99.90
70726;DHT22;58304;53.104;6.022;2022-12-07T13:38:13;5.80;99.90
70726;DHT22;58304;53.104;6.022;2022-12-07T13:40:41;5.90;99.90
70726;DHT22;58304;53.104;6.022;2022-12-07T13:43:11;5.70;99.90
70726;DHT22;58304;53.104;6.022;2022-12-07T13:45:38;5.70;99.90
70726;DHT22;58304;53.104;6.022;2022-12-07T13:48:35;5.60;99.90
70726;DHT22;58304;53.104;6.022;2022-12-07T13:51:03;5.60;99.90
70726;DHT22;58304;53.104;6.022;2022-12-07T13:53:29;5.50;99.90
70726;DHT22;58304;53.104;6.022;2022-12-07T13:56:00;5.50;99.90
70726;DHT22;58304;53.104;6.022;2022-12-07T13:58:30;5.40;99.90
70726;DHT22;58304;53.104;6.022;2022-12-07T14:00:57;5.30;99.90
70726;DHT22;58304;53.104;6.022;2022-12-07T14:03:29;5.20;99.90
70726;DHT22;58304;53.104;6.022;2022-12-07T14:06:27;5.20;99.90
70726;DHT22;58304;53.104;6.022;2022-12-07T14:09:15;5.10;99.90
70726;DHT22;58304;53.104;6.022;2022-12-07T14:11:41;5.10;99.90
70726;DHT22;58304;53.104;6.022;2022-12-07T14:14:10;5.10;99.90
70726;DHT22;58304;53.104;6.022;2022-12-07T14:16:39;5.00;99.90
70726;DHT22;58304;53.104;6.022;2022-12-07T14:19:05;5.00;99.90
70726;DHT22;58304;53.104;6.022;2022-12-07T14:21:33;5.00;99.90
70726;DHT22;58304;53.104;6.022;2022-12-07T14:26:33;4.90;99.90
70726;DHT22;58304;53.104;6.022;2022-12-07T14:29:19;4.90;99.90
70726;DHT22;58304;53.104;6.022;2022-12-07T14:31:45;4.80;99.90
70726;DHT22;58304;53.104;6.022;2022-12-07T14:34:13;4.70;99.90
70726;DHT22;58304;53.104;6.022;2022-12-07T14:36:39;4.70;99.90
70726;DHT22;58304;53.104;6.022;2022-12-07T14:39:06;4.60;99.90
70726;DHT22;58304;53.104;6.022;2022-12-07T14:41:31;4.50;99.90
70726;DHT22;58304;53.104;6.022;2022-12-07T14:44:16;4.40;99.90
70726;DHT22;58304;53.104;6.022;2022-12-07T14:46:42;4.40;99.90
70726;DHT22;58304;53.104;6.022;2022-12-07T14:49:07;4.40;99.90
70726;DHT22;58304;53.104;6.022;2022-12-07T14:51:33;4.30;99.90
70726;DHT22;58304;53.104;6.022;2022-12-07T14:54:01;4.30;99.90
70726;DHT22;58304;53.104;6.022;2022-12-07T14:56:27;4.30;99.90
70726;DHT22;58304;53.104;6.022;2022-12-07T14:58:53;4.40;99.90
70726;DHT22;58304;53.104;6.022;2022-12-07T15:01:18;4.40;99.90
70726;DHT22;58304;53.104;6.022;2022-12-07T15:03:44;4.40;99.90
70726;DHT22;58304;53.104;6.022;2022-12-07T15:06:14;4.40;99.90
70726;DHT22;58304;53.104;6.022;2022-12-07T15:08:39;4.40;99.90
70726;DHT22;58304;53.104;6.022;2022-12-07T15:11:05;4.40;99.90
70726;DHT22;58304;53.104;6.022;2022-12-07T15:13:31;4.40;99.90
70726;DHT22;58304;53.104;6.022;2022-12-07T15:16:19;4.40;99.90
70726;DHT22;58304;53.104;6.022;2022-12-07T15:18:45;4.40;99.90
70726;DHT22;58304;53.104;6.022;2022-12-07T15:21:14;4.40;99.90
70726;DHT22;58304;53.104;6.022;2022-12-07T15:23:40;4.30;99.90
70726;DHT22;58304;53.104;6.022;2022-12-07T15:26:05;4.30;99.90
70726;DHT22;58304;53.104;6.022;2022-12-07T15:28:31;4.30;99.90
70726;DHT22;58304;53.104;6.022;2022-12-07T15:30:56;4.30;99.90
70726;DHT22;58304;53.104;6.022;2022-12-07T15:33:22;4.20;99.90
70726;DHT22;58304;53.104;6.022;2022-12-07T15:35:47;4.10;99.90
70726;DHT22;58304;53.104;6.022;2022-12-07T15:38:13;4.10;99.90
70726;DHT22;58304;53.104;6.022;2022-12-07T15:40:39;4.00;99.90
70726;DHT22;58304;53.104;6.022;2022-12-07T15:43:05;3.90;99.90
70726;DHT22;58304;53.104;6.022;2022-12-07T15:45:50;3.80;99.90
70726;DHT22;58304;53.104;6.022;2022-12-07T15:48:16;3.80;99.90
70726;DHT22;58304;53.104;6.022;2022-12-07T15:50:42;3.70;99.90
70726;DHT22;58304;53.104;6.022;2022-12-07T15:53:07;3.70;99.90
70726;DHT22;58304;53.104;6.022;2022-12-07T15:55:33;3.70;99.90
70726;DHT22;58304;53.104;6.022;2022-12-07T15:57:59;3.70;99.90
70726;DHT22;58304;53.104;6.022;2022-12-07T16:00:25;3.80;99.90
70726;DHT22;58304;53.104;6.022;2022-12-07T16:02:50;3.80;99.90
70726;DHT22;58304;53.104;6.022;2022-12-07T16:05:16;3.80;99.90
70726;DHT22;58304;53.104;6.022;2022-12-07T16:07:41;3.80;99.90
70726;DHT22;58304;53.104;6.022;2022-12-07T16:10:07;3.80;99.90
70726;DHT22;58304;53.104;6.022;2022-12-07T16:12:33;3.80;99.90
70726;DHT22;58304;53.104;6.022;2022-12-07T16:14:58;3.80;99.90
70726;DHT22;58304;53.104;6.022;2022-12-07T16:17:24;3.70;99.90
70726;DHT22;58304;53.104;6.022;2022-12-07T16:19:49;3.70;99.90
70726;DHT22;58304;53.104;6.022;2022-12-07T16:22:15;3.60;99.90
70726;DHT22;58304;53.104;6.022;2022-12-07T16:24:41;3.60;99.90
70726;DHT22;58304;53.104;6.022;2022-12-07T16:27:06;3.60;99.90
70726;DHT22;58304;53.104;6.022;2022-12-07T16:29:32;3.50;99.90
70726;DHT22;58304;53.104;6.022;2022-12-07T16:31:57;3.40;99.90
70726;DHT22;58304;53.104;6.022;2022-12-07T16:34:23;3.40;99.90
70726;DHT22;58304;53.104;6.022;2022-12-07T16:36:48;3.30;99.90
70726;DHT22;58304;53.104;6.022;2022-12-07T16:39:14;3.30;99.90
70726;DHT22;58304;53.104;6.022;2022-12-07T16:41:40;3.30;99.90
70726;DHT22;58304;53.104;6.022;2022-12-07T16:44:08;3.20;99.90
70726;DHT22;58304;53.104;6.022;2022-12-07T16:46:35;3.20;99.90
70726;DHT22;58304;53.104;6.022;2022-12-07T16:49:02;3.20;99.90
70726;DHT22;58304;53.104;6.022;2022-12-07T16:51:28;3.20;99.90
70726;DHT22;58304;53.104;6.022;2022-12-07T16:53:54;3.10;99.90
70726;DHT22;58304;53.104;6.022;2022-12-07T16:56:19;3.00;99.90
70726;DHT22;58304;53.104;6.022;2022-12-07T16:58:45;3.00;99.90
70726;DHT22;58304;53.104;6.022;2022-12-07T17:01:15;2.90;99.90
70726;DHT22;58304;53.104;6.022;2022-12-07T17:03:41;2.90;99.90
70726;DHT22;58304;53.104;6.022;2022-12-07T17:06:11;3.00;99.90
70726;DHT22;58304;53.104;6.022;2022-12-07T17:08:37;2.90;99.90
70726;DHT22;58304;53.104;6.022;2022-12-07T17:11:10;3.00;99.90
70726;DHT22;58304;53.104;6.022;2022-12-07T17:13:35;2.90;99.90
70726;DHT22;58304;53.104;6.022;2022-12-07T17:16:20;3.00;99.90
70726;DHT22;58304;53.104;6.022;2022-12-07T17:18:46;3.00;99.90
70726;DHT22;58304;53.104;6.022;2022-12-07T17:21:11;3.00;99.90
70726;DHT22;58304;53.104;6.022;2022-12-07T17:23:37;3.10;99.90
70726;DHT22;58304;53.104;6.022;2022-12-07T17:26:32;3.10;99.90
70726;DHT22;58304;53.104;6.022;2022-12-07T17:28:58;3.10;99.90
70726;DHT22;58304;53.104;6.022;2022-12-07T17:31:25;3.10;99.90
70726;DHT22;58304;53.104;6.022;2022-12-07T17:33:51;3.10;99.90
70726;DHT22;58304;53.104;6.022;2022-12-07T17:36:20;3.00;99.90
70726;DHT22;58304;53.104;6.022;2022-12-07T17:38:46;3.00;99.90
70726;DHT22;58304;53.104;6.022;2022-12-07T17:41:18;3.10;99.90
70726;DHT22;58304;53.104;6.022;2022-12-07T17:44:04;2.90;99.90